Time,TemperatureF,DewpointF,PressureIn,WindDirection,WindDirectionDegrees,WindSpeedMPH,WindSpeedGustMPH,Humidity,HourlyPrecipIn,Conditions,Clouds,dailyrainin,SolarRadiationWatts/m^2,SoftwareType,DateUTC
2013-07-08 00:25:00,75.2,73.0,29.93,SSW,194,0.0,0.0,94,0.00,,,0.00,0,weatherlink.com 1.10,2013-07-08 04:25:00,
2013-07-08 00:40:00,74.9,73.0,29.93,SSW,194,0.0,0.0,95,0.00,,,0.00,0,weatherlink.com 1.10,2013-07-08 04:40:00,
2013-07-08 00:55:00,74.6,73.0,29.94,SSW,193,0.0,0.0,95,0.00,,,0.00,0,weatherlink.com 1.10,2013-07-08 04:55:00,
2013-07-08 01:10:00,74.6,73.0,29.94,SSW,193,0.0,0.0,95,0.00,,,0.00,0,weatherlink.com 1.10,2013-07-08 05:10:00,
2013-07-08 01:25:00,74.4,73.0,29.95,SSW,194,0.0,1.0,95,0.00,,,0.00,0,weatherlink.com 1.10,2013-07-08 05:25:00,
2013-07-08 01:40:00,74.3,73.0,29.94,SSW,193,0.0,0.0,95,0.00,,,0.00,0,weatherlink.com 1.10,2013-07-08 05:40:00,
2013-07-08 01:55:00,74.1,73.0,29.94,SSW,194,0.0,0.0,96,0.00,,,0.00,0,weatherlink.com 1.10,2013-07-08 05:55:00,
2013-07-08 02:10:00,73.8,73.0,29.94,SSW,193,0.0,0.0,96,0.00,,,0.00,0,weatherlink.com 1.10,2013-07-08 06:10:00,
2013-07-08 02:25:00,73.6,72.0,29.94,SSW,193,0.0,0.0,96,0.00,,,0.00,0,weatherlink.com 1.10,2013-07-08 06:25:00,
2013-07-08 02:40:00,73.5,73.0,29.93,SSW,193,0.0,0.0,97,0.00,,,0.00,0,weatherlink.com 1.10,2013-07-08 06:40:00,
2013-07-08 02:55:00,73.0,72.0,29.93,SSW,193,0.0,0.0,96,0.00,,,0.00,0,weatherlink.com 1.10,2013-07-08 06:55:00,
2013-07-08 03:10:00,73.0,72.0,29.93,SSW,194,0.0,0.0,97,0.00,,,0.00,0,weatherlink.com 1.10,2013-07-08 07:10:00,
2013-07-08 03:25:00,72.7,72.0,29.93,SSW,193,0.0,0.0,97,0.00,,,0.00,0,weatherlink.com 1.10,2013-07-08 07:25:00,
2013-07-08 03:40:00,72.7,72.0,29.93,SSW,193,0.0,0.0,97,0.00,,,0.00,0,weatherlink.com 1.10,2013-07-08 07:40:00,
2013-07-08 03:55:00,72.5,72.0,29.93,SSW,194,0.0,0.0,97,0.00,,,0.00,0,weatherlink.com 1.10,2013-07-08 07:55:00,
2013-07-08 04:10:00,72.3,71.0,29.93,SSW,193,0.0,0.0,97,0.00,,,0.00,0,weatherlink.com 1.10,2013-07-08 08:10:00,
2013-07-08 04:25:00,72.4,72.0,29.93,SSW,194,0.0,0.0,97,0.00,,,0.00,0,weatherlink.com 1.10,2013-07-08 08:25:00,
2013-07-08 04:40:00,72.7,72.0,29.93,SSW,194,0.0,1.0,96,0.00,,,0.00,0,weatherlink.com 1.10,2013-07-08 08:40:00,
2013-07-08 04:55:00,73.0,71.0,29.93,West,262,0.0,3.0,93,0.00,,,0.00,0,weatherlink.com 1.10,2013-07-08 08:55:00,
2013-07-08 05:10:00,73.2,70.0,29.94,WSW,250,0.0,4.0,90,0.00,,,0.00,0,weatherlink.com 1.10,2013-07-08 09:10:00,
2013-07-08 05:25:00,73.1,69.0,29.94,South,181,0.0,3.0,88,0.00,,,0.00,0,weatherlink.com 1.10,2013-07-08 09:25:00,
2013-07-08 05:40:00,73.1,69.0,29.95,West,265,0.0,3.0,86,0.00,,,0.00,7,weatherlink.com 1.10,2013-07-08 09:40:00,
2013-07-08 05:56:00,73.0,69.0,29.95,West,270,0.0,1.0,86,0.00,,,0.00,12,weatherlink.com 1.10,2013-07-08 09:56:00,
2013-07-08 06:10:00,73.0,69.0,29.95,WNW,284,0.0,3.0,87,0.00,,,0.00,19,weatherlink.com 1.10,2013-07-08 10:10:00,
2013-07-08 06:26:00,73.2,69.0,29.95,WNW,286,3.0,4.0,86,0.00,,,0.00,33,weatherlink.com 1.10,2013-07-08 10:26:00,
2013-07-08 06:41:00,73.6,69.0,29.96,West,277,0.0,3.0,86,0.00,,,0.00,32,weatherlink.com 1.10,2013-07-08 10:41:00,
2013-07-08 06:56:00,74.1,69.0,29.96,West,270,3.0,4.0,85,0.00,,,0.00,54,weatherlink.com 1.10,2013-07-08 10:56:00,
2013-07-08 07:12:00,74.7,70.0,29.96,SSW,200,0.0,5.0,85,0.00,,,0.00,56,weatherlink.com 1.10,2013-07-08 11:12:00,
2013-07-08 07:27:00,75.2,70.0,29.96,West,277,1.0,5.0,84,0.00,,,0.00,53,weatherlink.com 1.10,2013-07-08 11:27:00,
2013-07-08 07:41:00,75.3,70.0,29.97,WNW,296,0.0,5.0,84,0.00,,,0.00,53,weatherlink.com 1.10,2013-07-08 11:41:00,
2013-07-08 07:57:00,76.0,71.0,29.97,SW,214,2.0,6.0,84,0.00,,,0.00,81,weatherlink.com 1.10,2013-07-08 11:57:00,
2013-07-08 08:11:00,76.8,71.0,29.97,West,281,3.0,7.0,82,0.00,,,0.00,123,weatherlink.com 1.10,2013-07-08 12:11:00,
2013-07-08 08:26:00,77.2,71.0,29.97,WNW,302,0.0,11.0,81,0.00,,,0.00,163,weatherlink.com 1.10,2013-07-08 12:26:00,
2013-07-08 08:42:00,78.2,72.0,29.97,SW,229,0.0,5.0,81,0.00,,,0.00,322,weatherlink.com 1.10,2013-07-08 12:42:00,
2013-07-08 08:57:00,78.6,72.0,29.97,WNW,294,1.0,7.0,80,0.00,,,0.00,369,weatherlink.com 1.10,2013-07-08 12:57:00,
2013-07-08 09:13:00,78.7,72.0,29.97,SW,217,4.0,7.0,81,0.00,,,0.00,376,weatherlink.com 1.10,2013-07-08 13:13:00,
2013-07-08 09:27:00,79.0,73.0,29.97,NW,305,1.0,5.0,81,0.00,,,0.00,622,weatherlink.com 1.10,2013-07-08 13:27:00,
2013-07-08 09:42:00,80.1,73.0,29.97,West,279,0.0,5.0,78,0.00,,,0.00,647,weatherlink.com 1.10,2013-07-08 13:42:00,
2013-07-08 09:57:00,80.8,73.0,29.97,West,276,0.0,6.0,77,0.00,,,0.00,606,weatherlink.com 1.10,2013-07-08 13:57:00,
2013-07-08 10:12:00,81.7,73.0,29.97,WNW,296,0.0,4.0,74,0.00,,,0.00,462,weatherlink.com 1.10,2013-07-08 14:12:00,
2013-07-08 10:28:00,81.5,73.0,29.97,SW,225,5.0,7.0,76,0.00,,,0.00,629,weatherlink.com 1.10,2013-07-08 14:28:00,
2013-07-08 10:43:00,82.2,74.0,29.98,SW,235,0.0,5.0,76,0.00,,,0.00,819,weatherlink.com 1.10,2013-07-08 14:43:00,
2013-07-08 11:13:00,84.9,74.0,29.98,WNW,296,0.0,7.0,69,0.00,,,0.00,874,weatherlink.com 1.10,2013-07-08 15:13:00,
2013-07-08 11:29:00,85.2,74.0,29.97,NNW,340,4.0,6.0,68,0.00,,,0.00,907,weatherlink.com 1.10,2013-07-08 15:29:00,
2013-07-08 11:44:00,86.0,73.0,29.98,South,185,1.0,6.0,66,0.00,,,0.00,926,weatherlink.com 1.10,2013-07-08 15:44:00,
2013-07-08 12:00:00,86.1,75.0,29.97,South,188,4.0,7.0,70,0.00,,,0.00,960,weatherlink.com 1.10,2013-07-08 16:00:00,
2013-07-08 12:14:00,86.1,76.0,29.97,South,182,3.0,7.0,71,0.00,,,0.00,935,weatherlink.com 1.10,2013-07-08 16:14:00,
2013-07-08 12:29:00,87.1,76.0,29.98,South,187,0.0,6.0,70,0.00,,,0.00,953,weatherlink.com 1.10,2013-07-08 16:29:00,
2013-07-08 12:45:00,86.4,76.0,29.97,SSW,211,0.0,9.0,72,0.00,,,0.00,954,weatherlink.com 1.10,2013-07-08 16:45:00,
2013-07-08 12:59:00,87.0,76.0,29.97,South,185,4.0,10.0,70,0.00,,,0.00,953,weatherlink.com 1.10,2013-07-08 16:59:00,
2013-07-08 13:15:00,87.1,76.0,29.98,SSW,209,2.0,8.0,69,0.00,,,0.00,1004,weatherlink.com 1.10,2013-07-08 17:15:00,
2013-07-08 13:30:00,86.9,76.0,29.97,South,186,9.0,10.0,71,0.00,,,0.00,947,weatherlink.com 1.10,2013-07-08 17:30:00,
2013-07-08 13:45:00,86.6,75.0,29.97,SSW,198,5.0,9.0,69,0.00,,,0.00,939,weatherlink.com 1.10,2013-07-08 17:45:00,
2013-07-08 14:46:00,87.2,75.0,29.96,WNW,291,5.0,7.0,66,0.00,,,0.00,861,weatherlink.com 1.10,2013-07-08 18:46:00,
2013-07-08 15:31:00,87.6,73.0,29.96,SSW,204,1.0,11.0,62,0.00,,,0.00,784,weatherlink.com 1.10,2013-07-08 19:31:00,
2013-07-08 16:01:00,87.4,73.0,29.96,SSW,205,3.0,7.0,62,0.00,,,0.00,717,weatherlink.com 1.10,2013-07-08 20:01:00,
2013-07-08 16:32:00,87.5,72.0,29.95,WSW,244,3.0,8.0,61,0.00,,,0.00,635,weatherlink.com 1.10,2013-07-08 20:32:00,
2013-07-08 16:46:00,88.1,73.0,29.95,SW,222,2.0,6.0,61,0.00,,,0.00,594,weatherlink.com 1.10,2013-07-08 20:46:00,
2013-07-08 18:02:00,85.5,71.0,29.95,SW,229,4.0,7.0,62,0.00,,,0.00,346,weatherlink.com 1.10,2013-07-08 22:02:00,
2013-07-08 18:47:00,83.0,74.0,29.95,South,188,3.0,6.0,75,0.00,,,0.00,56,weatherlink.com 1.10,2013-07-08 22:47:00,
2013-07-08 19:02:00,82.5,74.0,29.96,SSE,167,2.0,8.0,76,0.00,,,0.00,40,weatherlink.com 1.10,2013-07-08 23:02:00,
2013-07-08 19:18:00,82.2,75.0,29.96,South,185,0.0,5.0,78,0.00,,,0.00,83,weatherlink.com 1.10,2013-07-08 23:18:00,
2013-07-08 19:33:00,81.5,74.0,29.96,SSW,209,3.0,7.0,79,0.00,,,0.00,44,weatherlink.com 1.10,2013-07-08 23:33:00,
2013-07-08 19:49:00,80.5,74.0,29.97,South,169,0.0,7.0,80,0.00,,,0.00,19,weatherlink.com 1.10,2013-07-08 23:49:00,
2013-07-08 20:03:00,79.5,73.0,29.97,SSW,196,2.0,4.0,81,0.00,,,0.00,7,weatherlink.com 1.10,2013-07-09 00:03:00,
2013-07-08 20:18:00,78.8,73.0,29.97,SSW,204,3.0,5.0,82,0.00,,,0.00,0,weatherlink.com 1.10,2013-07-09 00:18:00,
2013-07-08 20:49:00,78.1,73.0,29.98,West,280,0.0,6.0,84,0.00,,,0.00,0,weatherlink.com 1.10,2013-07-09 00:49:00,
2013-07-08 21:03:00,77.9,73.0,29.99,SW,232,0.0,3.0,84,0.00,,,0.00,0,weatherlink.com 1.10,2013-07-09 01:03:00,
2013-07-08 21:34:00,77.2,72.0,30.00,WSW,258,0.0,0.0,85,0.00,,,0.00,0,weatherlink.com 1.10,2013-07-09 01:34:00,
2013-07-08 21:49:00,76.9,72.0,30.01,WSW,257,0.0,2.0,85,0.00,,,0.00,0,weatherlink.com 1.10,2013-07-09 01:49:00,
2013-07-08 22:04:00,77.0,72.0,30.01,SSW,202,0.0,1.0,85,0.00,,,0.00,0,weatherlink.com 1.10,2013-07-09 02:04:00,
2013-07-08 22:19:00,76.7,72.0,30.02,SSW,202,0.0,1.0,85,0.00,,,0.00,0,weatherlink.com 1.10,2013-07-09 02:19:00,
2013-07-08 22:34:00,76.5,72.0,30.02,SSW,202,1.0,1.0,85,0.00,,,0.00,0,weatherlink.com 1.10,2013-07-09 02:34:00,
2013-07-08 22:50:00,76.2,72.0,30.01,SSW,202,0.0,1.0,86,0.00,,,0.00,0,weatherlink.com 1.10,2013-07-09 02:50:00,
2013-07-08 23:21:00,76.0,72.0,30.01,South,182,0.0,1.0,87,0.00,,,0.00,0,weatherlink.com 1.10,2013-07-09 03:21:00,
2013-07-08 23:37:00,76.0,72.0,30.02,North,360,4.0,6.0,87,0.00,,,0.00,0,weatherlink.com 1.10,2013-07-09 03:37:00,